Ever Unicorn — 9V7963 — position and weather

sailwx.info

Track history (hours):
 
Tides and Currents Weather Stations Pressure Air Temp Water Temp Dewpoint Dewpoint Depression Visibility Wind Speed Wind Dir Waves Ship Positions

Ever Unicorn

Last reported at 2014-Sep-03 04:33 UTC. Time now 2014-Sep-03 04:39 UTC.
Position N 29°54' E 122°10'.

Length 285 m; draft 11.5 m.

Type: Ship (hazmat cat D). MMSI: 564995000.

Date/timePositionNaut miles runAvg speedWind from/ knotsBaromVisibWave heightAir tempDewpointWater temp
2014-Sep-03 04:33N 29°54' E 122°10'1010.3
2014-Sep-03 03:33N 29°46' E 122°18'6 6.1
2014-Sep-03 02:33N 29°44' E 122°25'2 2.0
2014-Sep-03 01:22N 29°46' E 122°26'0 0.1
2014-Sep-03 00:28N 29°46' E 122°27'0 0.0
2014-Sep-02 23:28N 29°46' E 122°27'0 0.1
2014-Sep-02 22:28N 29°46' E 122°27'0 0.1
2014-Sep-02 21:28N 29°46' E 122°27'0 0.1
2014-Sep-02 20:28N 29°46' E 122°27'0 0.1
2014-Sep-02 19:22N 29°46' E 122°27'0 0.1
2014-Sep-02 18:28N 29°46' E 122°26'0 0.1
2014-Sep-02 17:28N 29°46' E 122°26'0 0.1
2014-Sep-02 16:28N 29°46' E 122°26'0 0.0
2014-Sep-02 15:28N 29°46' E 122°26'0 0.2
2014-Sep-02 14:28N 29°46' E 122°27'0 0.0
2014-Sep-02 13:28N 29°46' E 122°27'0 0.0
2014-Sep-02 12:22N 29°46' E 122°26'0 0.1
2014-Sep-02 11:22N 29°46' E 122°27'0 0.1
2014-Sep-02 10:22N 29°46' E 122°27'0 0.1
2014-Sep-02 09:28N 29°46' E 122°27'0 0.1
2014-Sep-02 08:28N 29°46' E 122°27'0 0.2
2014-Sep-02 07:28N 29°46' E 122°26'0 0.0
2014-Sep-02 06:28N 29°46' E 122°26'0 0.1
2014-Sep-02 05:28N 29°46' E 122°26'0 0.0
2014-Sep-02 04:28N 29°46' E 122°26'0 0.0
2014-Sep-02 03:22N 29°46' E 122°26'0 0.0
2014-Sep-02 02:28N 29°46' E 122°26'0 0.2
2014-Sep-02 01:28N 29°46' E 122°26'0 0.1
2014-Sep-02 00:28N 29°46' E 122°27'0 0.0
2014-Sep-01 23:10N 29°46' E 122°27'0 0.1
2014-Sep-01 22:28N 29°46' E 122°27'0 0.1
2014-Sep-01 21:22N 29°46' E 122°27'0 0.1
2014-Sep-01 20:28N 29°46' E 122°27'0 0.1
2014-Sep-01 19:10N 29°46' E 122°27'0 0.1
2014-Sep-01 18:28N 29°46' E 122°27'0 0.1
2014-Sep-01 17:28N 29°46' E 122°26'0 0.1
2014-Sep-01 16:28N 29°46' E 122°26'0 0.1
2014-Sep-01 15:22N 29°46' E 122°26'0 0.0
2014-Sep-01 14:28N 29°46' E 122°26'0 0.2
2014-Sep-01 13:28N 29°46' E 122°26'0 0.1
2014-Sep-01 12:25N 29°46' E 122°26'0 0.0
2014-Sep-01 11:16N 29°46' E 122°26'0 0.1
2014-Sep-01 10:28N 29°46' E 122°27'3 2.9
2014-Sep-01 09:33N 29°45' E 122°30'1515.0
2014-Sep-01 08:33N 29°54' E 122°44'2914.4
2014-Sep-01 06:33N 30°20' E 122°58'1616.4
2014-Sep-01 05:33N 30°28' E 122°42'1514.7
2014-Sep-01 04:33N 30°31' E 122°25'1110.8
2014-Sep-01 03:33N 30°33' E 122°13'9 3.8
2014-Sep-01 01:06N 30°38' E 122°03'0 0.0
2014-Aug-31 17:18N 30°38' E 122°03'0 0.0
2014-Aug-31 10:24N 30°38' E 122°03'4 4.5
2014-Aug-31 09:31N 30°35' E 122°07'9 9.5
2014-Aug-31 08:33N 30°33' E 122°18'1110.9
2014-Aug-31 07:34N 30°29' E 122°29'0 0.4
2014-Aug-31 06:26N 30°29' E 122°30'0 0.1
2014-Aug-31 05:32N 30°29' E 122°29'0 0.0
2014-Aug-31 04:32N 30°29' E 122°29'0 0.0
2014-Aug-31 03:32N 30°29' E 122°29'0 0.3
2014-Aug-31 02:32N 30°29' E 122°30'0 0.1
2014-Aug-31 01:32N 30°29' E 122°30'0 0.0
2014-Aug-31 00:32N 30°29' E 122°30'0 0.1
2014-Aug-30 23:33N 30°29' E 122°30'0 0.0
2014-Aug-30 22:33N 30°29' E 122°30'1 0.9
2014-Aug-30 21:33N 30°29' E 122°30'6 6.5
2014-Aug-30 20:33N 30°30' E 122°38'1312.7
2014-Aug-30 19:33N 30°29' E 122°53'  
Track history (hours):
 
Tides and Currents Weather Stations Pressure Air Temp Water Temp Dewpoint Dewpoint Depression Visibility Wind Speed Wind Dir Waves Ship Positions

Ever Unicorn

Last reported at 2014-Sep-03 04:33 UTC. Time now 2014-Sep-03 04:39 UTC.
Position N 29°54' E 122°10'.

Length 285 m; draft 11.5 m.

Type: Ship (hazmat cat D). MMSI: 564995000.

Date/timePositionNaut miles runAvg speedWind from/ knotsBaromVisibWave heightAir tempDewpointWater temp
2014-Sep-03 04:33N 29°54' E 122°10'1010.3
2014-Sep-03 03:33N 29°46' E 122°18'6 6.1
2014-Sep-03 02:33N 29°44' E 122°25'2 2.0
2014-Sep-03 01:22N 29°46' E 122°26'0 0.1
2014-Sep-03 00:28N 29°46' E 122°27'0 0.0
2014-Sep-02 23:28N 29°46' E 122°27'0 0.1
2014-Sep-02 22:28N 29°46' E 122°27'0 0.1
2014-Sep-02 21:28N 29°46' E 122°27'0 0.1
2014-Sep-02 20:28N 29°46' E 122°27'0 0.1
2014-Sep-02 19:22N 29°46' E 122°27'0 0.1
2014-Sep-02 18:28N 29°46' E 122°26'0 0.1
2014-Sep-02 17:28N 29°46' E 122°26'0 0.1
2014-Sep-02 16:28N 29°46' E 122°26'0 0.0
2014-Sep-02 15:28N 29°46' E 122°26'0 0.2
2014-Sep-02 14:28N 29°46' E 122°27'0 0.0
2014-Sep-02 13:28N 29°46' E 122°27'0 0.0
2014-Sep-02 12:22N 29°46' E 122°26'0 0.1
2014-Sep-02 11:22N 29°46' E 122°27'0 0.1
2014-Sep-02 10:22N 29°46' E 122°27'0 0.1
2014-Sep-02 09:28N 29°46' E 122°27'0 0.1
2014-Sep-02 08:28N 29°46' E 122°27'0 0.2
2014-Sep-02 07:28N 29°46' E 122°26'0 0.0
2014-Sep-02 06:28N 29°46' E 122°26'0 0.1
2014-Sep-02 05:28N 29°46' E 122°26'0 0.0
2014-Sep-02 04:28N 29°46' E 122°26'0 0.0
2014-Sep-02 03:22N 29°46' E 122°26'0 0.0
2014-Sep-02 02:28N 29°46' E 122°26'0 0.2
2014-Sep-02 01:28N 29°46' E 122°26'0 0.1
2014-Sep-02 00:28N 29°46' E 122°27'0 0.0
2014-Sep-01 23:10N 29°46' E 122°27'0 0.1
2014-Sep-01 22:28N 29°46' E 122°27'0 0.1
2014-Sep-01 21:22N 29°46' E 122°27'0 0.1
2014-Sep-01 20:28N 29°46' E 122°27'0 0.1
2014-Sep-01 19:10N 29°46' E 122°27'0 0.1
2014-Sep-01 18:28N 29°46' E 122°27'0 0.1
2014-Sep-01 17:28N 29°46' E 122°26'0 0.1
2014-Sep-01 16:28N 29°46' E 122°26'0 0.1
2014-Sep-01 15:22N 29°46' E 122°26'0 0.0
2014-Sep-01 14:28N 29°46' E 122°26'0 0.2
2014-Sep-01 13:28N 29°46' E 122°26'0 0.1
2014-Sep-01 12:25N 29°46' E 122°26'0 0.0
2014-Sep-01 11:16N 29°46' E 122°26'0 0.1
2014-Sep-01 10:28N 29°46' E 122°27'3 2.9
2014-Sep-01 09:33N 29°45' E 122°30'1515.0
2014-Sep-01 08:33N 29°54' E 122°44'2914.4
2014-Sep-01 06:33N 30°20' E 122°58'1616.4
2014-Sep-01 05:33N 30°28' E 122°42'1514.7
2014-Sep-01 04:33N 30°31' E 122°25'1110.8
2014-Sep-01 03:33N 30°33' E 122°13'9 3.8
2014-Sep-01 01:06N 30°38' E 122°03'0 0.0
2014-Aug-31 17:18N 30°38' E 122°03'0 0.0
2014-Aug-31 10:24N 30°38' E 122°03'4 4.5
2014-Aug-31 09:31N 30°35' E 122°07'9 9.5
2014-Aug-31 08:33N 30°33' E 122°18'1110.9
2014-Aug-31 07:34N 30°29' E 122°29'0 0.4
2014-Aug-31 06:26N 30°29' E 122°30'0 0.1
2014-Aug-31 05:32N 30°29' E 122°29'0 0.0
2014-Aug-31 04:32N 30°29' E 122°29'0 0.0
2014-Aug-31 03:32N 30°29' E 122°29'0 0.3
2014-Aug-31 02:32N 30°29' E 122°30'0 0.1
2014-Aug-31 01:32N 30°29' E 122°30'0 0.0
2014-Aug-31 00:32N 30°29' E 122°30'0 0.1
2014-Aug-30 23:33N 30°29' E 122°30'0 0.0
2014-Aug-30 22:33N 30°29' E 122°30'1 0.9
2014-Aug-30 21:33N 30°29' E 122°30'6 6.5
2014-Aug-30 20:33N 30°30' E 122°38'1312.7
2014-Aug-30 19:33N 30°29' E 122°53'  

Dump ship's entire track history